Time;durP1;ratioP1;P1;durP2;ratioP2;P2;SDS_P1;SDS_P2;PMS_P1;PMS_P2;Temp;Humidity;BMP_temperature;BMP_pressure;BME280_temperature;BME280_humidity;BME280_pressure;Samples;Min_cycle;Max_cycle;Signal;HPM_P1;HPM_P2
2022/06/25 00:00:09;;;;;;;0.60;0.60;;;28.60;48.50;;;;;;5082040;28;20443;-64
2022/06/25 00:02:42;;;;;;;0.80;0.80;;;28.60;49.10;;;;;;5081826;28;20467;-65
2022/06/25 00:05:32;;;;;;;0.80;0.70;;;28.70;49.90;;;;;;5081903;28;20451;-65
2022/06/25 00:08:03;;;;;;;0.67;0.67;;;28.80;48.10;;;;;;5082939;28;20474;-65
2022/06/25 00:10:34;;;;;;;0.73;0.73;;;28.60;48.70;;;;;;5071729;28;20466;-65
2022/06/25 00:13:03;;;;;;;0.70;0.70;;;28.40;48.00;;;;;;5072011;28;20456;-64
2022/06/25 00:15:34;;;;;;;0.50;0.50;;;28.20;48.70;;;;;;5081534;28;20512;-66
2022/06/25 00:18:07;;;;;;;0.70;0.70;;;28.30;49.60;;;;;;5078362;28;20487;-65
2022/06/25 00:20:37;;;;;;;0.80;0.80;;;28.30;49.30;;;;;;5074084;28;20461;-66
2022/06/25 00:23:15;;;;;;;0.70;0.70;;;28.30;48.70;;;;;;5076215;28;20512;-65
2022/06/25 00:25:46;;;;;;;0.50;0.50;;;28.30;49.00;;;;;;5079721;28;20476;-65
2022/06/25 00:28:20;;;;;;;0.70;0.70;;;28.30;49.40;;;;;;5075469;28;20473;-65
2022/06/25 00:30:50;;;;;;;0.60;0.60;;;28.40;49.60;;;;;;5077680;28;20468;-65
2022/06/25 00:33:23;;;;;;;0.60;0.60;;;28.30;47.80;;;;;;5078827;28;20469;-65
2022/06/25 00:35:54;;;;;;;1.17;0.60;;;28.10;48.60;;;;;;5078428;28;20853;-65
2022/06/25 00:38:24;;;;;;;0.90;0.70;;;28.10;48.50;;;;;;5074479;28;20452;-65
2022/06/25 00:40:55;;;;;;;0.67;0.67;;;28.10;49.50;;;;;;5074689;28;20467;-65
2022/06/25 00:43:26;;;;;;;1.10;0.80;;;28.00;48.30;;;;;;5073244;28;20464;-65
2022/06/25 00:45:57;;;;;;;0.70;0.70;;;28.00;48.70;;;;;;5073084;28;20462;-65
2022/06/25 00:48:30;;;;;;;0.60;0.60;;;28.00;48.10;;;;;;5075625;28;20460;-65
2022/06/25 00:51:03;;;;;;;0.73;0.73;;;27.90;48.80;;;;;;5073512;28;20547;-66
2022/06/25 00:53:35;;;;;;;0.90;0.90;;;27.90;49.10;;;;;;5074045;28;20882;-67
2022/06/25 00:56:09;;;;;;;1.43;1.13;;;27.90;49.50;;;;;;5074218;28;20494;-69
2022/06/25 00:58:42;;;;;;;0.90;0.90;;;27.90;50.00;;;;;;5073686;28;20468;-66
2022/06/25 01:01:16;;;;;;;0.70;0.70;;;27.90;49.20;;;;;;5074796;28;20460;-66
2022/06/25 01:03:50;;;;;;;1.10;0.67;;;27.90;49.00;;;;;;5075123;28;20584;-66
2022/06/25 01:06:20;;;;;;;1.03;0.67;;;27.80;49.30;;;;;;5074333;28;20463;-65
2022/06/25 01:08:51;;;;;;;0.60;0.53;;;27.80;50.40;;;;;;5079061;28;20490;-66
2022/06/25 01:11:25;;;;;;;0.80;0.80;;;27.70;49.50;;;;;;5076714;28;20809;-67
2022/06/25 01:13:57;;;;;;;1.80;0.90;;;27.60;50.50;;;;;;5080706;28;20473;-65
2022/06/25 01:16:27;;;;;;;0.80;0.80;;;27.60;50.90;;;;;;5081494;28;20574;-65
2022/06/25 01:19:00;;;;;;;0.80;0.80;;;27.60;50.90;;;;;;5080463;28;20535;-67
2022/06/25 01:21:31;;;;;;;1.27;0.80;;;27.50;50.50;;;;;;5082288;28;20463;-65
2022/06/25 01:24:04;;;;;;;0.80;0.80;;;27.40;51.10;;;;;;5077226;28;20507;-67
2022/06/25 01:26:37;;;;;;;0.70;0.70;;;27.40;51.30;;;;;;5081219;28;20468;-66
2022/06/25 01:29:08;;;;;;;0.80;0.60;;;27.30;51.30;;;;;;5082045;28;20474;-66
2022/06/25 01:31:39;;;;;;;1.53;1.07;;;27.20;52.60;;;;;;5081053;28;20463;-66
2022/06/25 01:34:11;;;;;;;1.43;1.00;;;27.20;52.30;;;;;;5077555;28;20545;-67
2022/06/25 01:36:41;;;;;;;1.63;0.80;;;27.20;52.60;;;;;;5078283;28;20479;-65
2022/06/25 01:39:14;;;;;;;0.93;0.80;;;27.10;53.10;;;;;;5080409;28;20444;-66
2022/06/25 01:41:45;;;;;;;0.93;0.90;;;27.10;52.80;;;;;;5081126;28;20467;-66
2022/06/25 01:44:15;;;;;;;1.20;1.10;;;27.00;53.00;;;;;;5079867;28;20532;-65
2022/06/25 01:46:47;;;;;;;0.80;0.80;;;26.90;53.40;;;;;;5080052;28;20463;-64
2022/06/25 01:49:17;;;;;;;0.80;0.80;;;26.80;53.00;;;;;;5079967;28;20517;-65
2022/06/25 01:51:48;;;;;;;1.20;0.90;;;26.70;53.90;;;;;;5079418;28;20469;-66
2022/06/25 01:54:20;;;;;;;0.90;0.90;;;26.80;54.40;;;;;;5081737;28;20453;-69
2022/06/25 01:56:51;;;;;;;1.00;1.00;;;26.70;54.40;;;;;;5081016;28;20501;-65
2022/06/25 01:59:22;;;;;;;0.83;0.83;;;26.70;53.60;;;;;;5079409;28;20522;-64
2022/06/25 02:01:53;;;;;;;1.23;0.87;;;26.60;54.00;;;;;;5080550;28;20840;-64
2022/06/25 02:04:23;;;;;;;2.70;0.97;;;26.60;54.40;;;;;;5080332;28;20469;-64
2022/06/25 02:06:54;;;;;;;0.70;0.70;;;26.60;54.10;;;;;;5080800;28;20476;-64
2022/06/25 02:09:27;;;;;;;1.30;0.93;;;26.40;54.60;;;;;;5084766;28;20452;-65
2022/06/25 02:11:58;;;;;;;0.83;0.77;;;26.40;54.60;;;;;;5077175;28;20964;-64
2022/06/25 02:14:29;;;;;;;0.97;0.97;;;26.40;54.10;;;;;;5077217;28;20466;-66
2022/06/25 02:17:01;;;;;;;0.70;0.70;;;26.30;54.70;;;;;;5078194;28;20615;-66
2022/06/25 02:19:35;;;;;;;0.80;0.80;;;26.30;54.80;;;;;;5077892;28;20565;-65
2022/06/25 02:22:06;;;;;;;1.27;1.17;;;26.20;54.60;;;;;;5078100;28;20591;-64
2022/06/25 02:24:39;;;;;;;0.90;0.80;;;26.20;54.70;;;;;;5075911;28;20494;-64
2022/06/25 02:27:09;;;;;;;1.20;0.90;;;26.10;55.60;;;;;;5077249;28;20538;-63
2022/06/25 02:29:40;;;;;;;0.83;0.80;;;26.10;55.00;;;;;;5078300;28;20820;-64
2022/06/25 02:32:11;;;;;;;1.27;1.17;;;26.00;54.50;;;;;;5077603;28;20492;-64
2022/06/25 02:34:42;;;;;;;1.03;0.93;;;26.00;55.00;;;;;;5076984;28;20484;-65
2022/06/25 02:37:13;;;;;;;0.57;0.57;;;25.90;55.30;;;;;;5078027;28;20491;-64
2022/06/25 02:39:45;;;;;;;1.13;0.80;;;25.90;54.80;;;;;;5078190;28;20463;-66
2022/06/25 02:42:16;;;;;;;1.00;1.00;;;25.80;55.30;;;;;;5078138;28;20480;-66
2022/06/25 02:44:47;;;;;;;0.90;0.87;;;25.70;55.40;;;;;;5076056;28;20991;-66
2022/06/25 02:47:17;;;;;;;0.93;0.70;;;25.60;55.50;;;;;;5079731;28;20848;-65
2022/06/25 02:49:48;;;;;;;1.10;0.90;;;25.50;55.10;;;;;;5082953;28;20458;-66
2022/06/25 02:52:19;;;;;;;1.20;0.80;;;25.50;55.40;;;;;;5083700;28;20459;-65
2022/06/25 02:54:51;;;;;;;0.87;0.80;;;25.40;55.30;;;;;;5082486;28;20483;-66
2022/06/25 03:00:13;;;;;;;1.00;0.73;;;25.30;55.80;;;;;;5082845;28;20461;-66
2022/06/25 03:02:44;;;;;;;0.70;0.70;;;25.20;55.80;;;;;;5083840;28;20496;-66
2022/06/25 03:05:15;;;;;;;0.73;0.70;;;25.20;55.60;;;;;;5083360;28;20456;-66
2022/06/25 03:07:46;;;;;;;0.67;0.67;;;25.10;55.90;;;;;;5083266;28;20474;-68
2022/06/25 03:10:18;;;;;;;0.63;0.60;;;25.00;56.60;;;;;;5084591;28;20464;-68
2022/06/25 03:12:49;;;;;;;1.10;1.00;;;25.00;56.30;;;;;;5082381;28;20490;-67
2022/06/25 03:15:20;;;;;;;1.80;0.90;;;24.90;56.00;;;;;;5077798;28;20457;-67
2022/06/25 03:17:51;;;;;;;1.23;1.10;;;24.80;56.30;;;;;;5077473;28;20613;-66
2022/06/25 03:20:22;;;;;;;0.97;0.90;;;24.80;56.80;;;;;;5073724;28;20474;-67
2022/06/25 03:22:52;;;;;;;1.10;1.00;;;24.70;57.10;;;;;;5075268;28;20488;-68
2022/06/25 03:25:25;;;;;;;1.03;0.70;;;24.60;57.50;;;;;;5082265;28;20447;-68
2022/06/25 03:27:56;;;;;;;0.87;0.87;;;24.50;57.10;;;;;;5080298;28;20460;-69
2022/06/25 03:30:26;;;;;;;0.80;0.80;;;24.40;56.90;;;;;;5081442;28;20535;-69
2022/06/25 03:32:57;;;;;;;1.07;0.97;;;24.40;57.20;;;;;;5081028;28;20467;-67
2022/06/25 03:35:28;;;;;;;0.73;0.73;;;24.30;56.60;;;;;;5081966;28;20487;-69
2022/06/25 03:37:59;;;;;;;1.00;0.60;;;24.30;56.80;;;;;;5083531;28;20476;-67
2022/06/25 03:40:32;;;;;;;0.70;0.57;;;24.20;56.80;;;;;;5082233;28;20464;-68
2022/06/25 03:43:02;;;;;;;1.00;0.90;;;24.10;56.70;;;;;;5082857;28;20480;-68
2022/06/25 03:45:34;;;;;;;0.73;0.73;;;24.00;56.90;;;;;;5081819;28;20466;-66
2022/06/25 03:48:04;;;;;;;0.73;0.73;;;23.90;57.40;;;;;;5083638;28;20456;-68
2022/06/25 03:50:35;;;;;;;0.90;0.90;;;23.80;56.90;;;;;;5082166;28;20447;-68
2022/06/25 03:53:06;;;;;;;1.33;1.23;;;23.70;57.10;;;;;;5083939;28;20444;-68
2022/06/25 03:55:38;;;;;;;1.57;0.90;;;23.70;56.70;;;;;;5082776;28;20526;-67
2022/06/25 03:58:22;;;;;;;0.80;0.80;;;23.60;57.20;;;;;;5082993;28;20518;-68
2022/06/25 04:00:53;;;;;;;1.00;1.00;;;23.50;57.80;;;;;;5078116;28;20463;-67
2022/06/25 04:03:24;;;;;;;1.00;0.90;;;23.40;57.30;;;;;;5074249;28;21976;-67
2022/06/25 04:05:55;;;;;;;1.20;1.10;;;23.40;57.70;;;;;;5075466;28;20458;-67
2022/06/25 04:08:26;;;;;;;0.87;0.87;;;23.20;58.00;;;;;;5075883;28;20447;-66
2022/06/25 04:10:58;;;;;;;1.00;0.90;;;23.10;58.10;;;;;;5073635;28;20442;-67
2022/06/25 04:13:31;;;;;;;1.70;1.03;;;23.00;58.30;;;;;;5076119;28;20791;-66
2022/06/25 04:16:02;;;;;;;1.90;0.60;;;22.90;59.00;;;;;;5074209;28;20460;-67
2022/06/25 04:18:33;;;;;;;1.23;1.13;;;22.90;59.00;;;;;;5075113;28;20495;-67
2022/06/25 04:21:04;;;;;;;1.10;0.83;;;22.80;58.90;;;;;;5074391;28;20474;-67
2022/06/25 04:23:35;;;;;;;0.90;0.83;;;22.80;58.60;;;;;;5075337;28;20566;-66
2022/06/25 04:26:07;;;;;;;1.40;1.00;;;22.70;59.40;;;;;;5077458;28;20471;-67
2022/06/25 04:31:28;;;;;;;0.80;0.80;;;22.50;59.70;;;;;;5075112;28;20473;-66
2022/06/25 04:33:59;;;;;;;1.37;1.27;;;22.50;60.10;;;;;;5075342;28;20467;-66
2022/06/25 04:36:30;;;;;;;1.20;1.10;;;22.40;60.80;;;;;;5073414;28;20475;-66
2022/06/25 04:39:01;;;;;;;0.83;0.83;;;22.30;60.70;;;;;;5078096;28;20464;-66
2022/06/25 04:41:34;;;;;;;1.53;1.13;;;22.20;61.50;;;;;;5082149;28;20462;-66
2022/06/25 04:44:05;;;;;;;1.20;1.10;;;22.20;60.50;;;;;;5080880;28;20489;-66
2022/06/25 04:46:36;;;;;;;1.73;0.90;;;22.20;61.10;;;;;;5080902;28;20527;-66
2022/06/25 04:49:07;;;;;;;1.27;1.17;;;22.10;62.20;;;;;;5081508;28;20567;-66
2022/06/25 04:51:38;;;;;;;1.50;1.40;;;22.10;61.30;;;;;;5080565;28;20459;-65
2022/06/25 04:54:09;;;;;;;1.30;1.20;;;21.90;62.30;;;;;;5081407;28;20458;-66
2022/06/25 04:56:42;;;;;;;0.97;0.97;;;21.80;63.60;;;;;;5070524;28;20456;-67
2022/06/25 04:59:13;;;;;;;1.33;1.23;;;21.70;63.20;;;;;;5080487;28;20459;-66
2022/06/25 05:01:43;;;;;;;1.10;1.10;;;21.70;63.60;;;;;;5081472;28;20567;-66
2022/06/25 05:04:14;;;;;;;1.87;1.30;;;21.60;65.00;;;;;;5080997;28;20532;-66
2022/06/25 05:06:45;;;;;;;1.70;1.27;;;21.50;65.30;;;;;;5079791;28;20657;-65
2022/06/25 05:09:17;;;;;;;0.90;0.90;;;21.50;65.70;;;;;;5080933;28;20455;-66
2022/06/25 05:11:49;;;;;;;1.10;1.10;;;21.50;65.60;;;;;;5075232;28;20542;-67
2022/06/25 05:14:20;;;;;;;1.00;1.00;;;21.30;66.40;;;;;;5079435;28;20490;-66
2022/06/25 05:16:51;;;;;;;0.90;0.90;;;21.20;66.90;;;;;;5080370;28;20467;-66
2022/06/25 05:19:22;;;;;;;1.57;1.00;;;21.20;67.50;;;;;;5079899;28;20543;-65
2022/06/25 05:21:53;;;;;;;1.67;1.10;;;21.10;68.20;;;;;;5077173;28;20470;-66
2022/06/25 05:24:23;;;;;;;1.53;1.20;;;21.00;69.20;;;;;;5079888;28;20494;-66
2022/06/25 05:26:56;;;;;;;0.93;0.93;;;20.90;68.50;;;;;;5077217;28;20433;-66
2022/06/25 05:29:26;;;;;;;1.13;1.03;;;20.70;68.80;;;;;;5073394;28;20468;-66
2022/06/25 05:32:01;;;;;;;1.50;1.40;;;20.70;70.40;;;;;;5078208;28;20451;-66
2022/06/25 05:34:32;;;;;;;0.97;0.97;;;20.60;71.40;;;;;;5080771;28;20456;-66
2022/06/25 05:37:03;;;;;;;1.27;1.20;;;20.50;70.80;;;;;;5079943;28;20446;-66
2022/06/25 05:39:33;;;;;;;1.07;1.03;;;20.40;71.40;;;;;;5080994;28;20471;-66
2022/06/25 05:42:06;;;;;;;0.90;0.90;;;20.30;71.90;;;;;;5081630;28;20445;-66
2022/06/25 05:44:37;;;;;;;1.00;1.00;;;20.20;72.20;;;;;;5085701;28;20455;-66
2022/06/25 05:47:08;;;;;;;1.33;1.23;;;20.10;73.30;;;;;;5084444;28;20523;-66
2022/06/25 05:49:39;;;;;;;1.43;1.33;;;20.00;73.80;;;;;;5085749;28;20418;-66
2022/06/25 05:52:10;;;;;;;1.43;1.33;;;19.90;75.30;;;;;;5084331;28;20434;-66
2022/06/25 05:54:40;;;;;;;1.30;1.20;;;19.80;75.60;;;;;;5084564;28;20803;-66
2022/06/25 05:57:13;;;;;;;1.40;1.30;;;19.80;75.50;;;;;;5082730;28;20438;-66
2022/06/25 05:59:44;;;;;;;0.90;0.90;;;19.70;77.40;;;;;;5084875;28;20490;-66
2022/06/25 06:02:15;;;;;;;0.73;0.73;;;19.60;76.40;;;;;;5083911;28;20459;-66
2022/06/25 06:04:45;;;;;;;0.83;0.83;;;19.50;78.30;;;;;;5085017;28;20444;-66
2022/06/25 06:07:16;;;;;;;1.07;0.97;;;19.50;77.40;;;;;;5082696;28;20446;-68
2022/06/25 06:09:47;;;;;;;0.97;0.97;;;19.40;77.90;;;;;;5085375;28;20453;-66
2022/06/25 06:12:19;;;;;;;0.90;0.90;;;19.30;77.30;;;;;;5083540;28;20457;-66
2022/06/25 06:14:50;;;;;;;1.20;1.10;;;19.30;78.70;;;;;;5084485;28;20452;-66
2022/06/25 06:17:21;;;;;;;1.10;1.10;;;19.30;79.60;;;;;;5084797;28;20448;-67
2022/06/25 06:19:52;;;;;;;1.27;1.27;;;19.20;80.30;;;;;;5084957;28;20489;-67
2022/06/25 06:22:23;;;;;;;1.30;1.20;;;19.20;80.60;;;;;;5084792;28;20456;-66
2022/06/25 06:24:53;;;;;;;1.63;1.20;;;19.10;79.30;;;;;;5085028;28;20513;-66
2022/06/25 06:27:26;;;;;;;1.30;1.20;;;19.10;78.80;;;;;;5084784;28;20434;-66
2022/06/25 06:29:58;;;;;;;1.40;1.30;;;19.10;80.90;;;;;;5083979;28;20461;-66
2022/06/25 06:32:29;;;;;;;1.13;1.10;;;19.00;79.60;;;;;;5083118;28;20531;-67
2022/06/25 06:35:00;;;;;;;1.20;1.10;;;19.00;80.50;;;;;;5074534;28;20534;-66
2022/06/25 06:37:31;;;;;;;1.40;1.30;;;18.90;81.40;;;;;;5084380;28;20567;-67
2022/06/25 06:40:02;;;;;;;2.50;1.10;;;18.90;82.50;;;;;;5082922;28;20470;-66
2022/06/25 06:42:35;;;;;;;0.97;0.93;;;18.80;83.20;;;;;;5083873;28;20470;-66
2022/06/25 06:45:07;;;;;;;1.20;1.10;;;18.70;83.50;;;;;;5083693;28;20470;-66
2022/06/25 06:47:37;;;;;;;1.40;1.30;;;18.60;85.40;;;;;;5082929;28;20464;-66
2022/06/25 06:50:10;;;;;;;3.43;1.17;;;18.60;87.50;;;;;;5082696;28;20441;-66
2022/06/25 06:52:41;;;;;;;1.50;1.40;;;18.60;91.10;;;;;;5083918;28;20554;-67
2022/06/25 06:55:11;;;;;;;1.20;1.20;;;18.50;91.40;;;;;;5083313;28;20441;-66
2022/06/25 06:57:44;;;;;;;1.20;1.13;;;18.40;92.60;;;;;;5082571;28;20448;-67
2022/06/25 07:00:17;;;;;;;1.40;1.30;;;18.40;90.70;;;;;;5082333;28;20495;-66
2022/06/25 07:02:48;;;;;;;1.10;1.00;;;18.30;91.50;;;;;;5083653;28;20577;-66
2022/06/25 07:05:19;;;;;;;1.47;1.20;;;18.20;92.30;;;;;;5082776;28;20714;-67
2022/06/25 07:07:49;;;;;;;1.40;1.30;;;18.10;91.10;;;;;;5083887;28;20497;-66
2022/06/25 07:10:20;;;;;;;1.00;1.00;;;18.00;92.80;;;;;;5082499;28;20543;-66
2022/06/25 07:12:53;;;;;;;1.60;1.33;;;18.00;95.70;;;;;;5083476;28;20774;-66
2022/06/25 07:15:24;;;;;;;1.17;1.07;;;17.90;93.50;;;;;;5082538;28;20495;-67
2022/06/25 07:18:01;;;;;;;1.00;1.00;;;17.80;96.10;;;;;;5083331;28;20447;-67
2022/06/25 07:20:32;;;;;;;2.63;1.37;;;17.70;96.90;;;;;;5081586;28;20459;-67
2022/06/25 07:23:03;;;;;;;1.60;1.40;;;17.70;98.20;;;;;;5083307;28;20475;-66
2022/06/25 07:25:35;;;;;;;1.50;1.40;;;17.60;98.00;;;;;;5083392;28;20455;-66
2022/06/25 07:28:08;;;;;;;1.10;1.00;;;17.60;99.10;;;;;;5082333;28;20463;-66
2022/06/25 07:30:39;;;;;;;1.33;1.20;;;17.60;99.70;;;;;;5076938;28;20467;-66
2022/06/25 07:33:12;;;;;;;3.23;1.37;;;17.50;99.90;;;;;;5081795;28;20462;-66
2022/06/25 07:35:45;;;;;;;1.23;1.13;;;17.50;99.90;;;;;;5079810;28;20452;-67
2022/06/25 07:38:16;;;;;;;1.10;1.10;;;17.40;99.90;;;;;;5082501;28;20455;-66
2022/06/25 07:40:47;;;;;;;1.67;1.57;;;17.30;99.90;;;;;;5082444;28;20445;-66
2022/06/25 07:43:19;;;;;;;1.40;1.30;;;17.30;99.90;;;;;;5070461;28;20470;-67
2022/06/25 07:45:51;;;;;;;1.40;1.30;;;17.20;99.90;;;;;;5082819;28;20493;-67
2022/06/25 07:48:21;;;;;;;2.17;1.63;;;17.20;99.90;;;;;;5082143;28;20571;-67
2022/06/25 07:53:36;;;;;;;2.57;2.37;;;17.00;99.90;;;;;;5039742;28;20451;-66
2022/06/25 07:56:08;;;;;;;1.73;1.63;;;17.10;99.90;;;;;;5082511;28;20466;-66
2022/06/25 07:58:41;;;;;;;1.40;1.30;;;17.00;99.90;;;;;;5082320;28;20455;-66
2022/06/25 08:01:12;;;;;;;2.60;1.80;;;16.80;99.90;;;;;;5080678;28;20459;-66
2022/06/25 08:03:43;;;;;;;1.57;1.47;;;16.80;99.90;;;;;;5082524;28;20488;-66
2022/06/25 08:06:15;;;;;;;1.70;1.60;;;16.80;99.90;;;;;;5080864;28;20889;-66
2022/06/25 08:08:46;;;;;;;2.03;1.83;;;16.80;99.90;;;;;;5082058;28;20487;-66
2022/06/25 08:11:16;;;;;;;1.80;1.60;;;16.80;99.90;;;;;;5082910;28;20422;-66
2022/06/25 08:13:49;;;;;;;1.57;1.47;;;16.70;99.90;;;;;;5082234;28;20591;-66
2022/06/25 08:16:21;;;;;;;1.90;1.80;;;16.70;99.90;;;;;;5081561;28;21022;-66
2022/06/25 08:18:53;;;;;;;1.20;1.10;;;16.60;99.90;;;;;;5081652;28;20577;-66
2022/06/25 08:21:24;;;;;;;1.60;1.50;;;16.60;99.90;;;;;;5081276;28;20460;-65
2022/06/25 08:23:54;;;;;;;2.77;1.50;;;16.50;99.90;;;;;;5082052;28;20473;-66
2022/06/25 08:26:25;;;;;;;1.83;1.73;;;16.50;99.90;;;;;;5080905;28;20463;-66
2022/06/25 08:28:57;;;;;;;2.03;1.83;;;16.50;99.90;;;;;;5066146;28;20427;-65
2022/06/25 08:31:29;;;;;;;1.50;1.40;;;16.50;99.90;;;;;;5076581;28;20456;-65
2022/06/25 08:34:00;;;;;;;1.47;1.40;;;16.50;99.90;;;;;;5080451;28;20474;-66
2022/06/25 08:36:30;;;;;;;1.60;1.50;;;16.50;99.90;;;;;;5080387;28;20451;-66
2022/06/25 08:39:01;;;;;;;1.87;1.77;;;16.40;99.90;;;;;;5082311;28;20448;-66
2022/06/25 08:41:32;;;;;;;1.90;1.80;;;16.40;99.90;;;;;;5082162;28;20465;-66
2022/06/25 08:44:04;;;;;;;1.63;1.53;;;16.40;99.90;;;;;;5076778;28;20918;-65
2022/06/25 08:46:36;;;;;;;1.67;1.57;;;16.40;99.90;;;;;;5080706;28;20491;-67
2022/06/25 08:49:09;;;;;;;1.90;1.70;;;16.30;99.90;;;;;;5081550;28;20463;-66
2022/06/25 08:51:40;;;;;;;1.33;1.23;;;16.30;99.90;;;;;;5080787;28;20467;-67
2022/06/25 08:54:12;;;;;;;1.87;1.77;;;16.30;99.90;;;;;;5082319;28;20454;-66
2022/06/25 08:56:43;;;;;;;1.90;1.80;;;16.20;99.90;;;;;;5081341;28;20464;-65
2022/06/25 08:59:18;;;;;;;2.37;2.20;;;16.20;99.90;;;;;;5070514;28;20463;-66
2022/06/25 09:01:49;;;;;;;2.50;1.97;;;16.10;99.90;;;;;;5081265;28;20477;-65
2022/06/25 09:04:20;;;;;;;1.87;1.67;;;16.10;99.90;;;;;;5080378;28;20546;-66
2022/06/25 09:06:52;;;;;;;3.90;1.70;;;16.10;99.90;;;;;;5070444;28;20462;-65
2022/06/25 09:09:23;;;;;;;2.43;1.93;;;16.10;99.90;;;;;;5081755;28;20455;-66
2022/06/25 09:11:56;;;;;;;1.97;1.50;;;16.00;99.90;;;;;;5080216;28;20467;-66
2022/06/25 09:14:30;;;;;;;2.20;2.00;;;16.00;99.90;;;;;;5071840;28;20467;-65
2022/06/25 09:17:04;;;;;;;1.93;1.70;;;15.90;99.90;;;;;;5080886;28;20512;-65
2022/06/25 09:19:37;;;;;;;3.97;1.80;;;15.90;99.90;;;;;;5079371;28;20509;-65
2022/06/25 09:22:09;;;;;;;2.13;1.80;;;15.80;99.90;;;;;;5080341;28;20443;-66
2022/06/25 09:24:49;;;;;;;3.50;1.90;;;15.90;99.90;;;;;;5079443;28;20522;-65
2022/06/25 09:27:21;;;;;;;2.63;1.83;;;15.80;99.90;;;;;;5080824;28;20458;-65
2022/06/25 09:29:54;;;;;;;1.80;1.70;;;15.90;99.90;;;;;;5077498;28;20459;-65
2022/06/25 09:32:25;;;;;;;1.90;1.80;;;15.80;99.90;;;;;;5080795;28;20458;-65
2022/06/25 09:34:56;;;;;;;2.37;2.20;;;15.70;99.90;;;;;;5076846;28;20477;-65
2022/06/25 09:37:28;;;;;;;3.60;1.47;;;15.70;99.90;;;;;;5080080;28;20459;-65
2022/06/25 09:39:59;;;;;;;3.30;3.03;;;15.60;99.90;;;;;;5068550;28;21006;-66
2022/06/25 09:42:32;;;;;;;2.07;1.47;;;15.60;99.90;;;;;;5080114;28;20475;-66
2022/06/25 09:45:08;;;;;;;1.70;1.60;;;15.60;99.90;;;;;;5079959;28;20477;-66
2022/06/25 09:47:40;;;;;;;1.50;1.40;;;15.60;99.90;;;;;;5079277;28;20498;-65
2022/06/25 09:50:16;;;;;;;1.63;1.50;;;15.60;99.90;;;;;;5079133;28;20538;-66
2022/06/25 09:52:56;;;;;;;1.73;1.63;;;15.50;99.90;;;;;;5080950;28;20566;-66
2022/06/25 09:55:28;;;;;;;1.90;1.57;;;15.40;99.90;;;;;;5081196;28;20573;-65
2022/06/25 09:58:02;;;;;;;1.50;1.40;;;15.40;99.90;;;;;;5079651;28;20518;-65
2022/06/25 10:00:34;;;;;;;1.40;1.30;;;15.40;99.90;;;;;;5078664;28;20499;-66
2022/06/25 10:03:06;;;;;;;1.90;1.80;;;15.30;99.90;;;;;;5079637;28;20966;-65
2022/06/25 10:05:40;;;;;;;1.40;1.30;;;15.30;99.90;;;;;;5078454;28;20497;-65
2022/06/25 10:08:15;;;;;;;1.27;1.17;;;15.20;99.90;;;;;;5075581;28;20957;-66
2022/06/25 10:10:48;;;;;;;1.33;1.23;;;15.20;99.90;;;;;;5080185;28;20466;-66
2022/06/25 10:13:20;;;;;;;1.33;1.23;;;15.20;99.90;;;;;;5077989;28;20443;-66
2022/06/25 10:15:54;;;;;;;1.80;1.53;;;15.30;99.90;;;;;;5079935;28;20455;-65
2022/06/25 10:18:28;;;;;;;1.63;1.30;;;15.20;99.90;;;;;;5080795;28;20463;-66
2022/06/25 10:20:59;;;;;;;1.90;1.80;;;15.20;99.90;;;;;;5079052;28;20832;-65
2022/06/25 10:23:30;;;;;;;1.63;1.40;;;15.20;99.90;;;;;;5080191;28;20502;-65
2022/06/25 10:26:00;;;;;;;1.67;1.57;;;15.20;99.90;;;;;;5080662;28;20459;-65
2022/06/25 10:28:31;;;;;;;1.50;1.40;;;15.10;99.90;;;;;;5082552;28;20455;-65
2022/06/25 10:31:08;;;;;;;2.10;1.43;;;15.10;99.90;;;;;;5081771;28;20520;-65
2022/06/25 10:33:53;;;;;;;1.57;1.40;;;15.10;99.90;;;;;;5083605;28;20455;-65
2022/06/25 10:36:42;;;;;;;1.40;1.20;;;15.00;99.90;;;;;;5082535;28;20469;-65
2022/06/25 10:39:37;;;;;;;2.50;1.13;;;15.00;99.90;;;;;;5079459;28;20555;-65
2022/06/25 10:45:48;;;;;;;1.20;1.20;;;14.90;99.90;;;;;;5020954;28;20462;-65
2022/06/25 10:48:23;;;;;;;2.47;1.67;;;14.90;99.90;;;;;;5021952;28;20466;-65
2022/06/25 10:50:56;;;;;;;1.60;1.50;;;14.90;99.90;;;;;;5020407;28;20465;-65
2022/06/25 10:53:28;;;;;;;2.00;1.50;;;14.90;99.90;;;;;;5021428;28;20469;-66
2022/06/25 10:56:17;;;;;;;2.90;1.90;;;14.90;99.90;;;;;;5021147;28;20455;-65
2022/06/25 10:58:49;;;;;;;1.93;1.83;;;14.80;99.90;;;;;;5013577;28;20473;-65
2022/06/25 11:01:34;;;;;;;1.60;1.50;;;14.80;99.90;;;;;;5019954;28;21043;-65
2022/06/25 11:04:09;;;;;;;1.73;1.40;;;14.80;99.90;;;;;;5011083;28;20514;-65
2022/06/25 11:06:41;;;;;;;2.13;2.00;;;14.70;99.90;;;;;;5019840;28;20524;-65
2022/06/25 11:09:17;;;;;;;1.40;1.30;;;14.70;99.90;;;;;;5021817;28;20558;-65
2022/06/25 11:11:50;;;;;;;2.03;1.90;;;14.80;99.90;;;;;;5006003;28;20434;-65
2022/06/25 11:14:24;;;;;;;1.47;1.37;;;14.80;99.90;;;;;;5022251;28;20442;-65
2022/06/25 11:16:56;;;;;;;1.50;1.40;;;14.80;99.90;;;;;;5021733;28;20462;-65
2022/06/25 11:19:28;;;;;;;1.70;1.60;;;14.80;99.90;;;;;;5054643;28;20468;-65
2022/06/25 11:22:03;;;;;;;2.10;1.43;;;14.70;99.90;;;;;;5081521;28;20573;-66
2022/06/25 11:24:34;;;;;;;1.73;1.63;;;14.70;99.90;;;;;;5082006;28;20470;-65
2022/06/25 11:29:54;;;;;;;1.30;1.20;;;14.70;99.90;;;;;;5083822;28;20443;-65
2022/06/25 11:32:27;;;;;;;1.30;1.20;;;14.60;99.90;;;;;;5084307;28;20461;-65
2022/06/25 11:35:01;;;;;;;1.40;1.30;;;14.60;99.90;;;;;;5081959;28;20463;-67
2022/06/25 11:37:32;;;;;;;1.90;1.70;;;14.50;99.90;;;;;;5083060;28;20575;-66
2022/06/25 11:40:04;;;;;;;1.53;1.43;;;14.50;99.90;;;;;;5081527;28;20455;-66
2022/06/25 11:42:35;;;;;;;1.63;1.40;;;14.50;99.90;;;;;;5081171;28;20493;-67
2022/06/25 11:45:06;;;;;;;1.60;1.50;;;14.40;99.90;;;;;;5081991;28;20505;-66
2022/06/25 11:47:38;;;;;;;3.23;1.80;;;14.40;99.90;;;;;;5081792;28;20585;-65
2022/06/25 11:50:13;;;;;;;1.63;1.53;;;14.40;99.90;;;;;;5081507;28;20527;-65
2022/06/25 11:52:44;;;;;;;1.50;1.30;;;14.30;99.90;;;;;;5082750;28;20796;-65
2022/06/25 11:55:15;;;;;;;1.70;1.30;;;14.30;99.90;;;;;;5082448;28;20456;-65
2022/06/25 11:57:46;;;;;;;2.13;1.70;;;14.30;99.90;;;;;;5082101;28;20502;-65
2022/06/25 12:00:17;;;;;;;1.40;1.30;;;14.30;99.90;;;;;;5082132;28;20451;-65
2022/06/25 12:02:48;;;;;;;1.77;1.67;;;14.20;99.90;;;;;;5080098;28;20495;-65
2022/06/25 12:05:21;;;;;;;3.37;1.83;;;14.20;99.90;;;;;;5080467;28;20578;-65
2022/06/25 12:07:53;;;;;;;1.87;1.77;;;14.20;99.90;;;;;;5081799;28;20467;-65
2022/06/25 12:10:26;;;;;;;1.93;1.83;;;14.20;99.90;;;;;;5082112;28;20464;-67
2022/06/25 12:12:57;;;;;;;1.57;1.47;;;14.20;99.90;;;;;;5082331;28;20463;-66
2022/06/25 12:15:31;;;;;;;2.33;2.00;;;14.20;99.90;;;;;;5081974;28;20489;-65
2022/06/25 12:18:08;;;;;;;1.87;1.43;;;14.10;99.90;;;;;;5074643;28;20466;-65
2022/06/25 12:20:58;;;;;;;1.27;1.10;;;14.10;99.90;;;;;;5080915;28;20463;-65
2022/06/25 12:23:29;;;;;;;2.03;1.87;;;14.10;99.90;;;;;;5077143;28;20497;-66
2022/06/25 12:26:00;;;;;;;2.50;2.30;;;14.20;99.90;;;;;;5080854;28;20474;-66
2022/06/25 12:28:37;;;;;;;2.80;2.50;;;14.20;99.90;;;;;;5081178;28;20468;-65
2022/06/25 12:31:13;;;;;;;1.93;1.83;;;14.20;99.90;;;;;;5081340;28;20790;-65
2022/06/25 12:33:51;;;;;;;1.80;1.70;;;14.20;99.90;;;;;;5081674;28;20494;-65
2022/06/25 12:36:27;;;;;;;2.20;2.00;;;14.30;99.90;;;;;;5080369;28;20470;-65
2022/06/25 12:38:57;;;;;;;2.00;1.90;;;14.30;99.90;;;;;;5080159;28;20459;-65
2022/06/25 12:41:49;;;;;;;2.23;1.83;;;14.20;99.90;;;;;;5081305;28;20501;-65
2022/06/25 12:44:20;;;;;;;1.83;1.60;;;14.30;99.90;;;;;;5081982;28;20474;-65
2022/06/25 12:47:02;;;;;;;1.57;1.47;;;14.30;99.90;;;;;;5080963;28;20466;-65
2022/06/25 12:49:56;;;;;;;1.50;1.40;;;14.20;99.90;;;;;;5081781;28;22093;-65
2022/06/25 12:52:40;;;;;;;1.70;1.47;;;14.20;99.90;;;;;;5067389;28;20463;-65
2022/06/25 12:55:20;;;;;;;1.60;1.50;;;14.20;99.90;;;;;;5081858;28;20461;-65
2022/06/25 12:57:57;;;;;;;1.90;1.63;;;14.10;99.90;;;;;;5081802;28;20459;-65
2022/06/25 13:00:29;;;;;;;1.97;1.77;;;14.10;99.90;;;;;;5080669;28;20463;-65
2022/06/25 13:03:00;;;;;;;1.53;1.43;;;14.10;99.90;;;;;;5082605;28;20889;-65
2022/06/25 13:05:31;;;;;;;1.60;1.50;;;14.10;99.90;;;;;;5080294;28;20467;-65
2022/06/25 13:08:06;;;;;;;1.60;1.50;;;14.10;99.90;;;;;;5081474;28;20466;-65
2022/06/25 13:10:36;;;;;;;2.50;2.00;;;14.10;99.90;;;;;;5080393;28;20784;-66
2022/06/25 13:13:07;;;;;;;2.00;1.90;;;14.10;99.90;;;;;;5082042;28;20493;-65
2022/06/25 13:15:38;;;;;;;1.40;1.30;;;14.10;99.90;;;;;;5080849;28;20474;-65
2022/06/25 13:18:09;;;;;;;1.70;1.60;;;14.10;99.90;;;;;;5081514;28;20527;-65
2022/06/25 13:20:40;;;;;;;1.70;1.60;;;14.20;99.90;;;;;;5079933;28;20459;-65
2022/06/25 13:23:14;;;;;;;1.47;1.37;;;14.20;99.90;;;;;;5082463;28;20505;-65
2022/06/25 13:25:45;;;;;;;1.40;1.30;;;14.40;99.90;;;;;;5081370;28;20458;-65
2022/06/25 13:28:16;;;;;;;1.53;1.43;;;14.50;99.90;;;;;;5081000;28;20459;-64